Time;durP1;ratioP1;P1;durP2;ratioP2;P2;SDS_P1;SDS_P2;PMS_P1;PMS_P2;Temp;Humidity;BMP_temperature;BMP_pressure;BME280_temperature;BME280_humidity;BME280_pressure;Samples;Min_cycle;Max_cycle;Signal;HPM_P1;HPM_P2
2023/12/13 00:02:09;;;;;;;15.60;7.85;;;;;;;7.01;100.00;99749.63;7397090;19;20001;-85
2023/12/13 00:04:38;;;;;;;14.90;8.57;;;;;;;7.01;100.00;99752.31;7393107;19;19934;-85
2023/12/13 00:07:10;;;;;;;16.10;7.63;;;;;;;7.01;100.00;99749.63;7394145;19;19929;-85
2023/12/13 00:09:39;;;;;;;16.67;7.65;;;;;;;7.01;100.00;99741.59;7390668;19;19927;-85
2023/12/13 00:12:08;;;;;;;13.18;7.38;;;;;;;7.01;100.00;99744.28;7393176;19;19950;-84
2023/12/13 00:14:41;;;;;;;13.63;7.93;;;;;;;7.02;100.00;99736.06;7393042;19;19914;-85
2023/12/13 00:17:14;;;;;;;18.63;8.25;;;;;;;7.03;100.00;99747.63;7391304;19;19925;-85
2023/12/13 00:19:43;;;;;;;12.82;8.15;;;;;;;7.02;100.00;99733.38;7391329;19;20019;-85
2023/12/13 00:22:14;;;;;;;14.05;7.15;;;;;;;7.01;100.00;99729.03;7393317;19;19922;-85
2023/12/13 00:24:44;;;;;;;15.07;8.45;;;;;;;7.02;100.00;99736.06;7399649;19;20392;-85
2023/12/13 00:27:14;;;;;;;13.77;8.05;;;;;;;7.03;100.00;99727.00;7399833;19;19926;-84
2023/12/13 00:29:43;;;;;;;14.50;7.97;;;;;;;7.04;100.00;99733.19;7400308;19;19943;-85
2023/12/13 00:32:12;;;;;;;14.27;7.88;;;;;;;7.05;100.00;99732.19;7391355;19;19926;-85
2023/12/13 00:34:41;;;;;;;14.63;8.00;;;;;;;7.05;100.00;99722.31;7393293;19;19919;-84
2023/12/13 00:37:10;;;;;;;10.70;6.82;;;;;;;7.06;100.00;99732.00;7399833;19;19927;-85
2023/12/13 00:39:42;;;;;;;12.68;7.63;;;;;;;7.05;100.00;99724.97;7390720;19;19956;-84
2023/12/13 00:42:12;;;;;;;14.82;6.85;;;;;;;7.06;100.00;99721.28;7394695;19;19967;-84
2023/12/13 00:44:42;;;;;;;11.60;6.75;;;;;;;7.07;100.00;99731.00;7397676;19;19923;-84
2023/12/13 00:47:10;;;;;;;11.55;6.97;;;;;;;7.08;100.00;99729.13;7397788;19;19994;-84
2023/12/13 00:49:40;;;;;;;14.50;6.88;;;;;;;7.10;100.00;99724.44;7398877;19;19926;-84
2023/12/13 00:52:09;;;;;;;17.55;7.80;;;;;;;7.08;100.00;99726.44;7397830;19;20016;-84
2023/12/13 00:54:37;;;;;;;12.93;7.25;;;;;;;7.09;100.00;99730.81;7398304;19;19925;-84
2023/12/13 00:57:09;;;;;;;11.32;6.68;;;;;;;7.11;100.00;99732.31;7396509;19;19915;-85
2023/12/13 00:59:38;;;;;;;12.82;6.55;;;;;;;7.11;100.00;99734.13;7398696;19;19947;-84
2023/12/13 01:02:07;;;;;;;11.10;7.40;;;;;;;7.11;100.00;99729.63;7403649;19;20551;-84
2023/12/13 01:04:38;;;;;;;14.43;7.53;;;;;;;7.12;100.00;99725.09;7398340;19;19929;-84
2023/12/13 01:07:06;;;;;;;12.25;7.63;;;;;;;7.12;100.00;99725.91;7395582;19;19946;-84
2023/12/13 01:09:35;;;;;;;12.48;6.90;;;;;;;7.13;100.00;99724.06;7396480;19;19918;-87
2023/12/13 01:12:04;;;;;;;15.98;7.70;;;;;;;7.13;100.00;99724.91;7395788;19;19926;-85
2023/12/13 01:14:36;;;;;;;11.90;6.70;;;;;;;7.13;100.00;99722.22;7395514;19;19922;-86
2023/12/13 01:17:04;;;;;;;16.08;8.32;;;;;;;7.13;100.00;99724.91;7396304;19;19918;-86
2023/12/13 01:19:33;;;;;;;17.63;8.60;;;;;;;7.12;100.00;99728.59;7400045;19;19927;-85
2023/12/13 01:22:02;;;;;;;14.52;8.27;;;;;;;7.13;100.00;99722.22;7402690;19;20455;-84
2023/12/13 01:24:31;;;;;;;16.80;8.60;;;;;;;7.13;100.00;99737.44;7403185;19;19922;-84
2023/12/13 01:27:00;;;;;;;18.50;9.02;;;;;;;7.14;100.00;99734.59;7402019;19;19918;-84
2023/12/13 01:29:29;;;;;;;16.88;8.13;;;;;;;7.15;100.00;99732.75;7396678;19;19927;-84
2023/12/13 01:32:00;;;;;;;18.58;9.65;;;;;;;7.16;100.00;99737.91;7390577;19;20404;-84
2023/12/13 01:34:29;;;;;;;14.25;8.10;;;;;;;7.16;100.00;99742.47;7394077;19;20332;-84
2023/12/13 01:36:58;;;;;;;14.70;9.27;;;;;;;7.16;100.00;99737.91;7396178;19;19919;-84
2023/12/13 01:39:27;;;;;;;17.73;9.50;;;;;;;7.17;100.00;99738.75;7395225;19;19983;-87
2023/12/13 01:41:57;;;;;;;16.33;9.02;;;;;;;7.17;100.00;99744.94;7390910;19;19927;-84
2023/12/13 01:44:26;;;;;;;17.35;8.68;;;;;;;7.18;100.00;99746.63;7395515;19;19922;-84
2023/12/13 01:46:54;;;;;;;14.05;8.45;;;;;;;7.18;100.00;99735.91;7396881;19;19923;-84
2023/12/13 01:49:26;;;;;;;20.23;10.10;;;;;;;7.17;100.00;99744.94;7398465;19;19922;-84
2023/12/13 01:51:54;;;;;;;16.33;9.18;;;;;;;7.18;100.00;99735.91;7395346;19;19915;-85
2023/12/13 01:54:24;;;;;;;16.27;8.70;;;;;;;7.18;100.00;99738.56;7398206;19;20797;-84
2023/12/13 01:56:53;;;;;;;14.15;8.50;;;;;;;7.18;100.00;99735.06;7394958;19;19919;-84
2023/12/13 01:59:23;;;;;;;17.73;9.15;;;;;;;7.19;100.00;99734.06;7391236;19;19926;-84
2023/12/13 02:02:13;;;;;;;14.63;8.68;;;;;;;7.20;100.00;99733.06;7394470;19;19918;-84
2023/12/13 02:04:45;;;;;;;18.55;9.32;;;;;;;7.20;100.00;99735.72;7401243;19;19927;-84
2023/12/13 02:07:14;;;;;;;16.98;8.93;;;;;;;7.21;100.00;99742.72;7397049;19;19923;-84
2023/12/13 02:09:43;;;;;;;17.95;9.88;;;;;;;7.22;100.00;99736.34;7395359;19;20285;-85
2023/12/13 02:12:12;;;;;;;17.58;9.18;;;;;;;7.23;100.00;99738.88;7396493;19;19923;-85
2023/12/13 02:14:41;;;;;;;17.73;9.52;;;;;;;7.23;100.00;99733.50;7396603;19;19927;-84
2023/12/13 02:17:13;;;;;;;20.02;9.98;;;;;;;7.23;100.00;99728.16;7390386;19;19926;-85
2023/12/13 02:19:44;;;;;;;20.10;9.70;;;;;;;7.24;100.00;99732.50;7394140;19;19923;-85
2023/12/13 02:22:15;;;;;;;17.63;10.02;;;;;;;7.25;100.00;99726.09;7394323;19;20241;-85
2023/12/13 02:24:48;;;;;;;17.13;9.75;;;;;;;7.27;100.00;99733.97;7396797;19;19922;-84
2023/12/13 02:27:17;;;;;;;19.38;10.15;;;;;;;7.26;100.00;99727.78;7395942;19;19922;-85
2023/12/13 02:29:48;;;;;;;19.75;10.93;;;;;;;7.26;100.00;99734.97;7392341;19;19927;-85
2023/12/13 02:32:17;;;;;;;18.63;9.98;;;;;;;7.26;100.00;99732.31;7395449;19;19918;-85
2023/12/13 02:34:46;;;;;;;20.70;9.98;;;;;;;7.27;100.00;99734.81;7397722;19;19926;-85
2023/12/13 02:37:17;;;;;;;21.23;10.80;;;;;;;7.28;100.00;99731.13;7394175;19;19923;-87
2023/12/13 02:39:46;;;;;;;22.80;11.35;;;;;;;7.29;100.00;99724.72;7394584;19;19914;-85
2023/12/13 02:42:14;;;;;;;24.30;11.15;;;;;;;7.29;100.00;99724.72;7396540;19;19926;-84
2023/12/13 02:44:43;;;;;;;21.23;11.20;;;;;;;7.30;100.00;99729.06;7395025;19;20378;-84
2023/12/13 02:47:12;;;;;;;25.35;12.93;;;;;;;7.30;100.00;99725.56;7394774;19;20288;-85
2023/12/13 02:50:01;;;;;;;23.42;11.85;;;;;;;7.27;100.00;99721.41;7390752;19;19971;-85
2023/12/13 02:52:32;;;;;;;18.65;10.25;;;;;;;7.28;100.00;99715.03;7396167;19;19923;-85
2023/12/13 02:55:00;;;;;;;21.90;13.40;;;;;;;7.27;100.00;99720.56;7393336;19;19935;-84
2023/12/13 02:57:29;;;;;;;23.45;11.70;;;;;;;7.28;100.00;99725.75;7388998;19;19914;-85
2023/12/13 02:59:57;;;;;;;23.70;10.70;;;;;;;7.26;100.00;99722.41;7391200;19;20385;-84
2023/12/13 03:02:27;;;;;;;21.40;11.90;;;;;;;7.26;100.00;99724.25;7394622;19;19923;-84
2023/12/13 03:04:55;;;;;;;26.33;12.20;;;;;;;7.25;100.00;99720.75;7394964;19;19939;-85
2023/12/13 03:07:24;;;;;;;22.05;12.63;;;;;;;7.23;100.00;99721.97;7401640;19;19936;-83
2023/12/13 03:10:15;;;;;;;23.30;12.85;;;;;;;7.22;100.00;99725.66;7387256;19;19929;-85
2023/12/13 03:12:44;;;;;;;22.65;11.80;;;;;;;7.21;100.00;99721.28;7395410;19;19915;-85
2023/12/13 03:15:13;;;;;;;24.73;11.50;;;;;;;7.18;100.00;99717.16;7395635;19;19943;-85
2023/12/13 03:17:41;;;;;;;20.48;10.88;;;;;;;7.16;100.00;99716.50;7395784;19;19929;-85
2023/12/13 03:20:13;;;;;;;22.55;11.73;;;;;;;7.16;100.00;99715.69;7396243;19;19950;-85
2023/12/13 03:22:41;;;;;;;21.25;12.02;;;;;;;7.14;100.00;99715.84;7395070;19;19939;-85
2023/12/13 03:25:10;;;;;;;21.75;12.02;;;;;;;7.13;100.00;99716.03;7409232;19;19922;-85
2023/12/13 03:27:44;;;;;;;22.52;11.82;;;;;;;7.12;100.00;99717.88;7396822;19;20653;-84
2023/12/13 03:30:15;;;;;;;21.45;10.77;;;;;;;7.10;100.00;99711.88;7400159;19;20014;-85
2023/12/13 03:32:44;;;;;;;22.38;12.25;;;;;;;7.09;100.00;99718.25;7392039;19;19986;-84
2023/12/13 03:35:12;;;;;;;19.65;11.52;;;;;;;7.08;100.00;99716.56;7393562;19;19927;-85
2023/12/13 03:37:41;;;;;;;19.30;11.00;;;;;;;7.07;100.00;99722.13;7394129;19;19925;-85
2023/12/13 03:40:11;;;;;;;21.77;11.32;;;;;;;7.08;100.00;99721.94;7396681;19;19951;-84
2023/12/13 03:42:42;;;;;;;23.52;11.05;;;;;;;7.08;100.00;99718.41;7387104;19;19950;-85
2023/12/13 03:45:11;;;;;;;20.83;11.23;;;;;;;7.06;100.00;99713.25;7390336;19;19919;-84
2023/12/13 03:47:40;;;;;;;22.25;11.73;;;;;;;7.06;100.00;99721.28;7394269;19;19990;-85
2023/12/13 03:50:09;;;;;;;22.48;12.15;;;;;;;7.05;100.00;99706.25;7393416;19;19922;-85
2023/12/13 03:52:38;;;;;;;22.48;11.93;;;;;;;7.05;100.00;99711.59;7394222;19;19919;-85
2023/12/13 03:55:07;;;;;;;22.23;10.65;;;;;;;7.07;100.00;99712.25;7395155;19;20345;-85
2023/12/13 03:57:36;;;;;;;21.35;10.93;;;;;;;7.08;100.00;99710.38;7396252;19;19922;-85
2023/12/13 04:00:09;;;;;;;22.50;10.60;;;;;;;7.08;100.00;99710.38;7398864;19;19918;-85
2023/12/13 04:02:37;;;;;;;21.33;10.93;;;;;;;7.08;100.00;99707.72;7396696;19;19982;-85
2023/12/13 04:05:07;;;;;;;20.98;11.18;;;;;;;7.07;100.00;99706.06;7404905;19;19974;-84
2023/12/13 04:07:36;;;;;;;20.95;11.13;;;;;;;7.06;100.00;99707.91;7418875;19;19918;-85
2023/12/13 04:10:04;;;;;;;20.73;10.60;;;;;;;7.07;100.00;99712.25;7418536;19;19918;-83
2023/12/13 04:12:33;;;;;;;20.02;10.30;;;;;;;7.07;100.00;99714.09;7405313;19;19919;-85
2023/12/13 04:15:02;;;;;;;21.02;10.45;;;;;;;7.06;100.00;99715.94;7401601;19;19955;-85
2023/12/13 04:17:33;;;;;;;18.38;10.48;;;;;;;7.05;100.00;99716.94;7397366;19;19934;-85
2023/12/13 04:20:02;;;;;;;18.83;11.02;;;;;;;7.07;100.00;99716.78;7399400;19;19922;-85
2023/12/13 04:22:31;;;;;;;15.68;9.73;;;;;;;7.08;100.00;99719.25;7398448;19;19980;-85
2023/12/13 04:24:59;;;;;;;22.25;11.27;;;;;;;7.08;100.00;99718.41;7399989;19;19955;-85
2023/12/13 04:27:28;;;;;;;20.77;10.15;;;;;;;7.08;100.00;99710.38;7398108;19;19922;-85
2023/12/13 04:29:57;;;;;;;19.05;10.25;;;;;;;7.07;100.00;99709.59;7399305;19;20351;-85
2023/12/13 04:32:26;;;;;;;21.77;10.45;;;;;;;7.07;100.00;99712.25;7397075;19;19918;-84
2023/12/13 04:34:57;;;;;;;23.60;10.85;;;;;;;7.06;100.00;99721.28;7394819;19;19933;-85
2023/12/13 04:37:26;;;;;;;19.52;10.45;;;;;;;7.09;100.00;99712.88;7399849;19;19933;-85
2023/12/13 04:39:55;;;;;;;19.63;10.48;;;;;;;7.10;100.00;99716.41;7397547;19;19923;-85
2023/12/13 04:42:23;;;;;;;23.40;10.57;;;;;;;7.08;100.00;99713.91;7396341;19;19939;-85
2023/12/13 04:44:52;;;;;;;15.60;9.18;;;;;;;7.11;100.00;99712.72;7397629;19;20682;-85
2023/12/13 04:47:20;;;;;;;17.58;10.02;;;;;;;7.09;100.00;99707.53;7398488;19;20344;-84
2023/12/13 04:49:49;;;;;;;19.80;10.65;;;;;;;7.09;100.00;99712.88;7396162;19;19926;-85
2023/12/13 04:52:40;;;;;;;17.95;9.55;;;;;;;7.10;100.00;99716.41;7394402;19;20348;-84
2023/12/13 04:55:09;;;;;;;19.05;9.52;;;;;;;7.11;100.00;99720.75;7396614;19;19946;-84
2023/12/13 04:57:38;;;;;;;21.42;10.00;;;;;;;7.11;100.00;99708.19;7395306;19;19926;-84
2023/12/13 05:00:08;;;;;;;20.58;10.27;;;;;;;7.12;100.00;99720.53;7396616;19;19950;-84
2023/12/13 05:02:36;;;;;;;17.42;9.25;;;;;;;7.13;100.00;99714.19;7395590;19;19978;-84
2023/12/13 05:05:05;;;;;;;16.15;9.13;;;;;;;7.14;100.00;99715.03;7393884;19;19918;-84
2023/12/13 05:07:34;;;;;;;17.83;9.45;;;;;;;7.14;100.00;99713.19;7398831;19;19922;-85
2023/12/13 05:10:06;;;;;;;17.35;9.98;;;;;;;7.15;100.00;99714.00;7396678;19;19918;-85
2023/12/13 05:12:34;;;;;;;;;;;;;;;7.07;100.00;99714.94;7400391;19;19926;-84
2023/12/13 05:15:03;;;;;;;16.42;8.73;;;;;;;7.14;100.00;99718.53;7399323;19;20011;-84
2023/12/13 05:17:35;;;;;;;17.98;9.95;;;;;;;7.16;100.00;99719.16;7402023;19;19919;-85
2023/12/13 05:20:04;;;;;;;16.65;9.23;;;;;;;7.18;100.00;99719.84;7396893;19;19923;-84
2023/12/13 05:22:32;;;;;;;20.35;10.10;;;;;;;7.19;100.00;99715.31;7395482;19;19918;-85
2023/12/13 05:25:01;;;;;;;15.82;9.18;;;;;;;7.19;100.00;99715.31;7398758;19;20269;-84
2023/12/13 05:27:32;;;;;;;19.58;10.00;;;;;;;7.19;100.00;99709.94;7398160;19;19926;-84
2023/12/13 05:30:02;;;;;;;15.88;9.68;;;;;;;7.20;100.00;99717.81;7398671;19;20026;-84
2023/12/13 05:32:30;;;;;;;16.65;8.38;;;;;;;7.22;100.00;99722.97;7402745;19;20373;-84
2023/12/13 05:34:59;;;;;;;16.92;8.98;;;;;;;7.21;100.00;99719.47;7404954;19;19918;-84
2023/12/13 05:37:28;;;;;;;18.42;9.98;;;;;;;7.21;100.00;99713.25;7400954;19;19938;-85
2023/12/13 05:39:56;;;;;;;17.88;8.90;;;;;;;7.21;100.00;99722.13;7389847;19;19938;-84
2023/12/13 05:42:25;;;;;;;17.58;8.35;;;;;;;7.23;100.00;99720.13;7393690;19;19926;-84
2023/12/13 05:44:56;;;;;;;19.50;9.98;;;;;;;7.25;100.00;99719.91;7396525;19;20013;-84
2023/12/13 05:47:24;;;;;;;17.25;8.65;;;;;;;7.25;100.00;99718.06;7397817;19;19947;-84
2023/12/13 05:49:55;;;;;;;18.85;9.35;;;;;;;7.25;100.00;99719.91;7396559;19;20257;-85
2023/12/13 05:52:24;;;;;;;15.20;8.02;;;;;;;7.25;100.00;99723.44;7398194;19;19938;-85
2023/12/13 05:55:12;;;;;;;16.48;8.50;;;;;;;7.26;100.00;99729.63;7396636;19;19938;-84
2023/12/13 05:57:41;;;;;;;14.40;8.10;;;;;;;7.27;100.00;99723.25;7396950;19;19926;-84
2023/12/13 06:00:13;;;;;;;18.42;9.23;;;;;;;7.26;100.00;99727.78;7385775;19;20301;-85
2023/12/13 06:02:42;;;;;;;18.08;9.27;;;;;;;7.27;100.00;99726.78;7398928;19;20616;-84
2023/12/13 06:05:11;;;;;;;16.67;8.55;;;;;;;7.29;100.00;99726.59;7398586;19;19947;-84
2023/12/13 06:07:40;;;;;;;16.52;8.55;;;;;;;7.27;100.00;99734.81;7402420;19;19922;-85
2023/12/13 06:10:10;;;;;;;19.80;9.13;;;;;;;7.30;100.00;99733.59;7408166;19;19941;-84
2023/12/13 06:12:38;;;;;;;16.48;9.13;;;;;;;7.30;100.00;99734.44;7413386;19;19927;-84
2023/12/13 06:15:08;;;;;;;17.20;9.65;;;;;;;7.32;100.00;99728.06;7399776;19;20273;-84
2023/12/13 06:17:39;;;;;;;17.13;9.18;;;;;;;7.31;100.00;99735.25;7398658;19;19918;-84
2023/12/13 06:20:09;;;;;;;16.48;9.38;;;;;;;7.33;100.00;99737.78;7400286;19;20302;-83
2023/12/13 06:22:37;;;;;;;18.67;9.20;;;;;;;7.33;100.00;99733.25;7388553;19;19919;-83
2023/12/13 06:25:07;;;;;;;17.02;8.43;;;;;;;7.33;100.00;99740.44;7394508;19;19926;-86
2023/12/13 06:27:36;;;;;;;14.90;8.13;;;;;;;7.35;100.00;99741.91;7396303;19;19926;-85
2023/12/13 06:30:06;;;;;;;17.80;8.38;;;;;;;7.37;100.00;99741.75;7395832;19;19922;-85
2023/12/13 06:32:35;;;;;;;16.92;9.43;;;;;;;7.37;100.00;99739.06;7397135;19;19923;-85
2023/12/13 06:35:07;;;;;;;16.00;8.43;;;;;;;7.37;100.00;99747.09;7395433;19;19926;-85
2023/12/13 06:37:35;;;;;;;;;;;;;;;7.26;100.00;99749.22;7391557;19;19950;-85
2023/12/13 06:40:03;;;;;;;17.58;9.10;;;;;;;7.34;100.00;99750.13;7396125;19;19943;-85
2023/12/13 06:42:32;;;;;;;16.05;8.70;;;;;;;7.36;100.00;99745.44;7392515;19;20274;-85
2023/12/13 06:45:01;;;;;;;15.55;8.25;;;;;;;7.37;100.00;99749.78;7394627;19;19923;-85
2023/12/13 06:47:29;;;;;;;17.33;8.40;;;;;;;7.36;100.00;99748.13;7396732;19;20305;-85
2023/12/13 06:49:58;;;;;;;17.50;9.48;;;;;;;7.36;100.00;99753.47;7394373;19;19922;-84
2023/12/13 06:52:29;;;;;;;12.93;7.85;;;;;;;7.35;100.00;99749.94;7393825;19;19927;-84
2023/12/13 06:54:57;;;;;;;15.60;8.60;;;;;;;7.37;100.00;99755.13;7392748;19;19919;-83
2023/12/13 06:57:26;;;;;;;12.48;7.15;;;;;;;7.37;100.00;99750.63;7386658;19;19918;-84
2023/12/13 06:59:54;;;;;;;16.63;8.23;;;;;;;7.38;100.00;99756.81;7393925;19;19923;-85
2023/12/13 07:02:23;;;;;;;15.65;8.43;;;;;;;7.38;100.00;99751.44;7394438;19;19926;-84
2023/12/13 07:04:52;;;;;;;16.70;8.88;;;;;;;7.39;100.00;99758.44;7396117;19;19915;-84
2023/12/13 07:07:20;;;;;;;19.25;9.73;;;;;;;7.40;100.00;99762.81;7395255;19;19943;-84
2023/12/13 07:09:53;;;;;;;15.05;9.38;;;;;;;7.38;100.00;99759.50;7391112;19;20277;-90
2023/12/13 07:12:22;;;;;;;15.73;7.82;;;;;;;7.40;100.00;99770.84;7385203;19;19954;-81
2023/12/13 07:14:51;;;;;;;14.25;8.18;;;;;;;7.39;100.00;99766.50;7388447;19;19941;-81
2023/12/13 07:17:19;;;;;;;12.55;8.23;;;;;;;7.41;100.00;99765.31;7396419;19;19922;-81
2023/12/13 07:19:48;;;;;;;13.70;8.60;;;;;;;7.41;100.00;99772.50;7394393;19;19919;-80
2023/12/13 07:22:18;;;;;;;15.48;8.88;;;;;;;7.41;100.00;99768.00;7398027;19;19923;-81
2023/12/13 07:24:47;;;;;;;14.80;8.68;;;;;;;7.41;100.00;99770.66;7388550;19;19943;-85
2023/12/13 07:27:19;;;;;;;46.28;23.38;;;;;;;7.40;100.00;99766.31;7389313;19;20370;-85
2023/12/13 07:30:06;;;;;;;23.20;11.45;;;;;;;7.41;100.00;99768.00;7400658;19;20332;-84
2023/12/13 07:32:36;;;;;;;15.48;8.88;;;;;;;7.42;100.00;99777.66;7396767;19;19958;-84
2023/12/13 07:35:26;;;;;;;17.80;9.90;;;;;;;7.42;100.00;99782.22;7396285;19;19938;-85
2023/12/13 07:37:55;;;;;;;17.42;8.52;;;;;;;7.41;100.00;99784.06;7399085;19;19918;-85
2023/12/13 07:40:25;;;;;;;15.65;9.05;;;;;;;7.41;100.00;99776.03;7400835;19;19943;-85
2023/12/13 07:42:57;;;;;;;13.63;8.02;;;;;;;7.42;100.00;99784.91;7394014;19;19922;-85
2023/12/13 07:45:27;;;;;;;16.48;8.32;;;;;;;7.41;100.00;99788.59;7394485;19;19922;-84
2023/12/13 07:47:57;;;;;;;14.93;8.45;;;;;;;7.40;100.00;99782.38;7396465;19;19919;-83
2023/12/13 07:50:28;;;;;;;14.80;8.27;;;;;;;7.40;100.00;99785.06;7396688;19;19919;-84
2023/12/13 07:52:58;;;;;;;15.27;7.63;;;;;;;7.41;100.00;99793.94;7398134;19;19926;-84
2023/12/13 07:55:28;;;;;;;16.45;8.27;;;;;;;7.41;100.00;99793.94;7397772;19;19940;-83
2023/12/13 07:58:01;;;;;;;16.92;8.98;;;;;;;7.41;100.00;99796.63;7390289;19;19922;-84
2023/12/13 08:00:36;;;;;;;27.60;11.63;;;;;;;7.40;100.00;99795.78;7389637;19;19933;-83
2023/12/13 08:03:06;;;;;;;13.60;8.40;;;;;;;7.42;100.00;99814.38;7396110;19;20174;-83
2023/12/13 08:05:36;;;;;;;16.13;8.82;;;;;;;7.41;100.00;99801.97;7390320;19;19919;-84
2023/12/13 08:08:08;;;;;;;14.35;8.50;;;;;;;7.42;100.00;99814.38;7396982;19;19933;-83
2023/12/13 08:10:46;;;;;;;14.45;7.75;;;;;;;7.40;100.00;99816.38;7399033;19;19923;-84
2023/12/13 08:13:18;;;;;;;13.18;8.38;;;;;;;7.42;100.00;99820.53;7398280;19;19919;-84
2023/12/13 08:15:48;;;;;;;;;;;;;;;7.34;100.00;99819.78;7401995;19;19922;-84
2023/12/13 08:18:17;;;;;;;14.52;8.00;;;;;;;7.42;100.00;99819.72;7402846;19;19928;-84
2023/12/13 08:20:47;;;;;;;15.75;8.98;;;;;;;7.44;100.00;99825.72;7403234;19;19919;-84
2023/12/13 08:23:16;;;;;;;16.08;8.45;;;;;;;7.45;100.00;99822.88;7404501;19;19926;-84
2023/12/13 08:25:45;;;;;;;15.65;8.88;;;;;;;7.47;100.00;99825.34;7408352;19;19919;-83
2023/12/13 08:28:19;;;;;;;16.00;8.80;;;;;;;7.48;100.00;99824.34;7393960;19;19922;-84
2023/12/13 08:30:51;;;;;;;15.75;7.78;;;;;;;7.49;100.00;99831.38;7385908;19;19922;-84
2023/12/13 08:33:24;;;;;;;13.50;7.78;;;;;;;7.51;100.00;99829.31;7386533;19;20265;-84
2023/12/13 08:35:54;;;;;;;16.38;7.82;;;;;;;7.52;100.00;99831.00;7382936;19;19930;-84
2023/12/13 08:38:24;;;;;;;18.33;8.82;;;;;;;7.51;100.00;99826.66;7385660;19;19925;-84
2023/12/13 08:40:54;;;;;;;17.08;8.32;;;;;;;7.54;100.00;99834.34;7384539;19;19926;-84
2023/12/13 08:43:26;;;;;;;16.20;7.88;;;;;;;7.56;100.00;99837.66;7390396;19;20368;-84
2023/12/13 08:45:55;;;;;;;15.52;8.60;;;;;;;7.56;100.00;99834.97;7400130;19;19925;-84
2023/12/13 08:48:25;;;;;;;14.52;7.68;;;;;;;7.59;100.00;99845.34;7399991;19;19922;-83
2023/12/13 08:50:55;;;;;;;13.60;7.80;;;;;;;7.63;100.00;99846.66;7396870;19;20257;-84
2023/12/13 08:53:27;;;;;;;13.52;7.40;;;;;;;7.66;100.00;99848.97;7399470;19;19911;-83
2023/12/13 08:56:04;;;;;;;14.05;7.60;;;;;;;7.66;100.00;99846.28;7403464;19;20356;-82
2023/12/13 08:58:42;;;;;;;14.18;7.93;;;;;;;7.68;100.00;99853.09;7404182;19;19921;-84
2023/12/13 09:01:28;;;;;;;14.98;8.15;;;;;;;7.68;100.00;99860.31;7398964;19;19926;-83
2023/12/13 09:04:10;;;;;;;14.75;8.50;;;;;;;7.73;100.00;99858.75;7405869;19;20448;-84
2023/12/13 09:06:43;;;;;;;19.05;9.40;;;;;;;7.77;100.00;99864.56;7405893;19;19914;-84
2023/12/13 09:09:14;;;;;;;17.60;9.15;;;;;;;7.80;100.00;99861.56;7400951;19;19929;-84
2023/12/13 09:11:43;;;;;;;15.95;9.15;;;;;;;7.83;100.00;99861.16;7399264;19;19926;-84
2023/12/13 09:14:15;;;;;;;20.88;9.50;;;;;;;7.86;100.00;99871.53;7396898;19;19954;-84
2023/12/13 09:16:45;;;;;;;15.55;8.38;;;;;;;7.90;100.00;99863.94;7392625;19;19926;-84
2023/12/13 09:19:14;;;;;;;14.30;8.18;;;;;;;7.97;100.00;99864.88;7393546;19;19930;-84
2023/12/13 09:21:43;;;;;;;16.92;9.57;;;;;;;8.01;100.00;99864.31;7390634;19;19986;-84
2023/12/13 09:24:32;;;;;;;18.23;9.32;;;;;;;8.02;100.00;99863.31;7395112;19;19952;-84
2023/12/13 09:27:01;;;;;;;19.80;9.20;;;;;;;8.13;100.00;99867.38;7397786;19;19950;-84
2023/12/13 09:29:32;;;;;;;14.60;8.30;;;;;;;8.17;100.00;99874.88;7400577;19;19925;-84
2023/12/13 09:32:01;;;;;;;17.85;8.35;;;;;;;8.20;100.00;99861.06;7406409;19;19922;-83
2023/12/13 09:34:30;;;;;;;18.88;9.77;;;;;;;8.28;100.00;99872.75;7396124;19;19952;-84
2023/12/13 09:36:59;;;;;;;15.27;8.50;;;;;;;8.32;100.00;99874.91;7398564;19;19922;-84
2023/12/13 09:39:28;;;;;;;17.48;9.23;;;;;;;8.34;100.00;99886.25;7397215;19;20289;-84
2023/12/13 09:42:03;;;;;;;17.40;9.43;;;;;;;8.38;100.00;99887.53;7397225;19;19919;-84
2023/12/13 09:44:39;;;;;;;18.00;9.15;;;;;;;8.43;100.00;99887.81;7389231;19;19923;-84
2023/12/13 09:47:09;;;;;;;17.08;9.60;;;;;;;8.47;100.00;99885.59;7395159;19;19927;-84
2023/12/13 09:49:39;;;;;;;16.85;9.18;;;;;;;8.52;100.00;99885.88;7396274;19;19922;-84
2023/12/13 09:52:11;;;;;;;19.70;9.20;;;;;;;8.56;100.00;99893.34;7396353;19;19922;-84
2023/12/13 09:54:41;;;;;;;16.88;9.40;;;;;;;8.62;100.00;99887.25;7395873;19;19926;-85
2023/12/13 09:57:10;;;;;;;18.67;9.52;;;;;;;8.68;100.00;99891.00;7396904;19;19926;-84
2023/12/13 09:59:45;;;;;;;18.50;9.13;;;;;;;8.74;100.00;99890.28;7398432;19;19926;-84
2023/12/13 10:02:16;;;;;;;17.52;9.38;;;;;;;8.80;100.00;99892.19;7392550;19;19930;-84
2023/12/13 10:04:46;;;;;;;18.20;8.88;;;;;;;8.83;100.00;99890.97;7395153;19;19956;-84
2023/12/13 10:07:15;;;;;;;18.00;9.68;;;;;;;8.85;100.00;99889.75;7397382;19;19986;-84
2023/12/13 10:09:45;;;;;;;18.40;8.80;;;;;;;8.89;100.00;99893.72;7392095;19;19922;-83
2023/12/13 10:12:18;;;;;;;15.32;8.80;;;;;;;8.93;100.00;99892.31;7396972;19;20367;-83
2023/12/13 10:14:53;;;;;;;18.40;9.55;;;;;;;8.94;100.00;99902.06;7395610;19;19922;-82
2023/12/13 10:17:26;;;;;;;17.67;9.52;;;;;;;8.99;100.00;99899.63;7397470;19;19926;-83
2023/12/13 10:19:57;;;;;;;16.60;9.98;;;;;;;9.06;100.00;99911.28;7399006;19;19931;-83
2023/12/13 10:22:32;;;;;;;18.42;9.95;;;;;;;9.04;100.00;99907.13;7390521;19;20266;-83
2023/12/13 10:25:03;;;;;;;15.85;9.63;;;;;;;9.08;100.00;99914.63;7396685;19;19918;-82
2023/12/13 10:27:33;;;;;;;17.33;9.48;;;;;;;9.08;100.00;99909.25;7395339;19;19915;-83
2023/12/13 10:30:11;;;;;;;16.45;9.55;;;;;;;9.07;100.00;99917.47;7403370;19;19932;-83
2023/12/13 10:32:41;;;;;;;19.80;9.88;;;;;;;9.05;100.00;99909.63;7401579;19;19945;-82
2023/12/13 10:35:12;;;;;;;21.08;8.85;;;;;;;9.07;100.00;99915.63;7400993;19;20252;-85
2023/12/13 10:37:45;;;;;;;22.02;9.93;;;;;;;9.10;100.00;99915.25;7407778;19;19918;-83
2023/12/13 10:40:17;;;;;;;17.73;9.98;;;;;;;9.09;100.00;99913.59;7400835;19;20570;-83
2023/12/13 10:42:48;;;;;;;;;;;;;;;9.03;100.00;99927.78;7401429;19;19918;-84
2023/12/13 10:45:23;;;;;;;19.73;10.00;;;;;;;9.11;100.00;99918.75;7402701;19;19934;-84
2023/12/13 10:47:57;;;;;;;16.98;10.23;;;;;;;9.14;100.00;99925.63;7393950;19;20309;-79
2023/12/13 10:50:30;;;;;;;17.92;9.98;;;;;;;9.15;100.00;99930.00;7399782;19;19918;-85
2023/12/13 10:53:02;;;;;;;23.63;10.32;;;;;;;9.16;100.00;99931.63;7396275;19;19917;-85
2023/12/13 10:55:31;;;;;;;21.60;10.32;;;;;;;9.16;100.00;99926.25;7392954;19;19914;-85
2023/12/13 10:58:21;;;;;;;18.88;9.93;;;;;;;9.16;100.00;99926.25;7388366;19;19926;-84
2023/12/13 11:00:53;;;;;;;18.50;9.52;;;;;;;9.19;100.00;99932.06;7395943;19;19974;-83
2023/12/13 11:03:26;;;;;;;19.50;10.02;;;;;;;9.21;100.00;99934.56;7394572;19;19962;-82
2023/12/13 11:05:56;;;;;;;18.10;9.38;;;;;;;9.22;100.00;99934.41;7391569;19;19926;-84
2023/12/13 11:08:25;;;;;;;16.20;9.43;;;;;;;9.24;100.00;99945.78;7392822;19;19941;-82
2023/12/13 11:11:04;;;;;;;19.63;10.68;;;;;;;9.24;100.00;99944.94;7385773;19;20412;-82
2023/12/13 11:13:34;;;;;;;18.40;9.85;;;;;;;9.27;100.00;99940.03;7392670;19;19947;-83
2023/12/13 11:16:15;;;;;;;17.95;10.45;;;;;;;9.26;100.00;99941.06;7394918;19;19969;-85
2023/12/13 11:18:45;;;;;;;17.65;10.38;;;;;;;9.32;100.00;99944.84;7386345;19;20369;-84
2023/12/13 11:21:22;;;;;;;18.48;10.23;;;;;;;9.34;100.00;99943.63;7380142;19;20263;-86
2023/12/13 11:23:51;;;;;;;17.60;9.75;;;;;;;9.36;100.00;99949.63;7394378;19;20729;-86
2023/12/13 11:26:42;;;;;;;18.70;9.68;;;;;;;9.35;100.00;99947.13;7393605;19;19911;-86
2023/12/13 11:29:17;;;;;;;16.02;9.70;;;;;;;9.31;100.00;99954.75;7395765;19;19952;-86
2023/12/13 11:31:58;;;;;;;19.80;10.25;;;;;;;9.28;100.00;99951.59;7394389;19;19962;-86
2023/12/13 11:34:38;;;;;;;19.13;9.48;;;;;;;9.23;100.00;99960.25;7395737;19;19958;-86
2023/12/13 11:37:09;;;;;;;15.48;8.73;;;;;;;9.22;100.00;99963.13;7387829;19;19923;-84
2023/12/13 11:39:39;;;;;;;10.82;7.15;;;;;;;9.13;100.00;99962.41;7393076;19;19922;-84
2023/12/13 11:42:09;;;;;;;11.40;6.55;;;;;;;9.04;100.00;99967.06;7400726;19;19926;-85